createdAt,value
2022-09-25T00:01:01.590Z,11.07
2022-09-25T00:03:30.155Z,11.03
2022-09-25T00:06:09.326Z,11.01
2022-09-25T00:08:36.963Z,10.95
2022-09-25T00:11:09.020Z,10.98
2022-09-25T00:13:36.125Z,10.93
2022-09-25T00:16:03.172Z,10.91
2022-09-25T00:18:29.754Z,10.92
2022-09-25T00:21:02.303Z,10.93
2022-09-25T00:23:28.807Z,10.93
2022-09-25T00:25:55.150Z,10.88
2022-09-25T00:28:21.672Z,10.81
2022-09-25T00:30:48.050Z,10.83
2022-09-25T00:33:14.456Z,10.85
2022-09-25T00:35:41.124Z,10.89
2022-09-25T00:38:07.427Z,10.83
2022-09-25T00:40:33.878Z,10.79
2022-09-25T00:43:00.359Z,10.72
2022-09-25T00:45:26.697Z,10.73
2022-09-25T00:48:00.935Z,10.70
2022-09-25T00:50:31.087Z,10.73
2022-09-25T00:53:03.175Z,10.73
2022-09-25T00:55:31.579Z,10.76
2022-09-25T00:58:02.248Z,10.80
2022-09-25T01:00:28.898Z,10.74
2022-09-25T01:02:56.622Z,10.71
2022-09-25T01:05:33.404Z,10.66
2022-09-25T01:08:01.516Z,10.56
2022-09-25T01:10:28.945Z,10.52
2022-09-25T01:12:57.654Z,10.52
2022-09-25T01:15:36.210Z,10.54
2022-09-25T01:18:05.383Z,10.41
2022-09-25T01:20:47.831Z,10.38
2022-09-25T01:23:46.476Z,10.52
2022-09-25T01:26:43.749Z,10.50
2022-09-25T01:29:22.535Z,10.40
2022-09-25T01:32:20.315Z,10.37
2022-09-25T01:35:11.229Z,10.32
2022-09-25T01:37:44.798Z,10.28
2022-09-25T01:40:20.301Z,10.27
2022-09-25T01:42:57.347Z,10.25
2022-09-25T01:45:29.498Z,10.31
2022-09-25T01:47:59.610Z,10.29
2022-09-25T01:50:34.764Z,10.34
2022-09-25T01:53:04.321Z,10.43
2022-09-25T01:55:36.929Z,10.42
2022-09-25T01:58:10.784Z,10.46
2022-09-25T02:00:43.032Z,10.50
2022-09-25T02:03:20.741Z,10.52
2022-09-25T02:05:53.630Z,10.54
2022-09-25T02:08:31.917Z,10.47
2022-09-25T02:11:01.545Z,10.46
2022-09-25T02:13:42.185Z,10.49
2022-09-25T02:16:20.375Z,10.45
2022-09-25T02:18:48.526Z,10.49
2022-09-25T02:21:28.531Z,10.47
2022-09-25T02:24:20.034Z,10.50
2022-09-25T02:26:46.895Z,10.42
2022-09-25T02:29:13.510Z,10.37
2022-09-25T02:31:48.149Z,10.40
2022-09-25T02:34:17.980Z,10.40
2022-09-25T02:36:44.537Z,10.37
2022-09-25T02:39:13.911Z,10.39
2022-09-25T02:41:43.200Z,10.31
2022-09-25T02:44:37.260Z,10.35
2022-09-25T02:47:10.148Z,10.44
2022-09-25T02:49:55.661Z,10.46
2022-09-25T02:52:49.499Z,10.33
2022-09-25T02:55:25.108Z,10.26
2022-09-25T02:57:56.987Z,10.24
2022-09-25T03:00:23.536Z,10.12
2022-09-25T03:02:56.451Z,10.16
2022-09-25T03:05:25.152Z,10.07
2022-09-25T03:07:55.243Z,10.04
2022-09-25T03:10:23.108Z,10.07
2022-09-25T03:12:49.549Z,9.97
2022-09-25T03:15:17.300Z,9.97
2022-09-25T03:17:43.815Z,9.99
2022-09-25T03:20:10.153Z,9.99
2022-09-25T03:22:36.792Z,10.02
2022-09-25T03:25:04.840Z,9.92
2022-09-25T03:27:31.375Z,9.86
2022-09-25T03:29:58.065Z,9.86
2022-09-25T03:32:24.483Z,9.81
2022-09-25T03:34:50.817Z,9.88
2022-09-25T03:37:17.288Z,9.86
2022-09-25T03:39:43.666Z,9.82
2022-09-25T03:42:10.107Z,9.88
2022-09-25T03:44:36.435Z,9.86
2022-09-25T03:47:03.053Z,9.94
2022-09-25T03:49:29.297Z,9.90
2022-09-25T03:51:55.674Z,9.89
2022-09-25T03:54:22.064Z,9.80
2022-09-25T03:56:48.580Z,9.83
2022-09-25T03:59:15.137Z,9.79
2022-09-25T04:01:41.787Z,9.84
2022-09-25T04:04:09.563Z,9.91
2022-09-25T04:06:35.959Z,9.94
2022-09-25T04:09:02.314Z,9.93
2022-09-25T04:11:28.659Z,9.90
2022-09-25T04:13:54.964Z,10.00
2022-09-25T04:16:21.596Z,9.98
2022-09-25T04:18:48.448Z,9.96
2022-09-25T04:21:15.479Z,10.03
2022-09-25T04:23:42.689Z,10.07
2022-09-25T04:26:09.571Z,10.10
2022-09-25T04:28:36.388Z,10.11
2022-09-25T04:31:03.872Z,10.08
2022-09-25T04:33:30.419Z,10.09
2022-09-25T04:35:56.892Z,10.08
2022-09-25T04:38:23.771Z,10.06
2022-09-25T04:40:50.352Z,10.05
2022-09-25T04:43:16.820Z,10.07
2022-09-25T04:45:43.154Z,10.11
2022-09-25T04:48:09.700Z,10.00
2022-09-25T04:50:36.177Z,9.98
2022-09-25T04:53:03.429Z,9.97
2022-09-25T04:55:29.941Z,10.03
2022-09-25T04:58:01.088Z,9.94
2022-09-25T05:00:29.882Z,9.92
2022-09-25T05:02:57.046Z,9.93
2022-09-25T05:05:23.639Z,9.94
2022-09-25T05:07:57.263Z,9.98
2022-09-25T05:10:28.586Z,9.98
2022-09-25T05:12:56.666Z,9.93
2022-09-25T05:15:23.115Z,10.02
2022-09-25T05:17:49.944Z,9.86
2022-09-25T05:20:16.529Z,9.94
2022-09-25T05:22:42.968Z,9.98
2022-09-25T05:25:09.572Z,9.99
2022-09-25T05:27:36.136Z,9.90
2022-09-25T05:30:02.561Z,9.97
2022-09-25T05:32:28.885Z,10.05
2022-09-25T05:34:55.182Z,10.06
2022-09-25T05:37:21.569Z,10.12
2022-09-25T05:39:48.021Z,10.18
2022-09-25T05:42:14.426Z,10.11
2022-09-25T05:44:40.855Z,10.11
2022-09-25T05:47:07.500Z,10.09
2022-09-25T05:49:34.149Z,10.14
2022-09-25T05:52:00.787Z,10.23
2022-09-25T05:54:27.022Z,10.25
2022-09-25T05:56:53.390Z,10.36
2022-09-25T05:59:19.797Z,10.40
2022-09-25T06:01:46.512Z,10.46
2022-09-25T06:04:13.237Z,10.42
2022-09-25T06:06:39.614Z,10.49
2022-09-25T06:09:06.179Z,10.56
2022-09-25T06:11:32.802Z,10.59
2022-09-25T06:13:59.430Z,10.59
2022-09-25T06:16:25.795Z,10.61
2022-09-25T06:18:52.527Z,10.55
2022-09-25T06:21:18.927Z,10.66
2022-09-25T06:23:45.262Z,10.66
2022-09-25T06:26:11.748Z,10.79
2022-09-25T06:28:38.280Z,10.86
2022-09-25T06:31:05.470Z,10.98
2022-09-25T06:33:32.213Z,10.98
2022-09-25T06:35:58.819Z,11.08
2022-09-25T06:38:25.293Z,11.14
2022-09-25T06:40:52.110Z,11.11
2022-09-25T06:43:18.685Z,11.15
2022-09-25T06:45:45.133Z,11.16
2022-09-25T06:48:14.461Z,11.10
2022-09-25T06:50:47.393Z,11.09
2022-09-25T06:53:14.992Z,11.21
2022-09-25T06:55:42.842Z,11.19
2022-09-25T06:58:13.093Z,11.14
2022-09-25T07:00:39.486Z,11.12
2022-09-25T07:03:06.142Z,11.26
2022-09-25T07:05:33.189Z,11.32
2022-09-25T07:07:59.749Z,11.38
2022-09-25T07:10:26.403Z,11.36
2022-09-25T07:12:52.815Z,11.37
2022-09-25T07:15:19.148Z,11.44
2022-09-25T07:17:45.833Z,11.39
2022-09-25T07:20:13.616Z,11.20
2022-09-25T07:22:40.586Z,11.22
2022-09-25T07:25:07.973Z,11.24
2022-09-25T07:27:34.558Z,11.19
2022-09-25T07:30:01.728Z,11.27
2022-09-25T07:32:28.470Z,11.27
2022-09-25T07:34:56.062Z,11.09
2022-09-25T07:37:22.390Z,11.18
2022-09-25T07:39:48.714Z,11.25
2022-09-25T07:42:15.201Z,11.28
2022-09-25T07:44:46.015Z,11.27
2022-09-25T07:47:14.801Z,11.21
2022-09-25T07:49:41.568Z,11.25
2022-09-25T07:52:07.921Z,11.08
2022-09-25T07:54:34.274Z,11.29
2022-09-25T07:57:02.036Z,11.42
2022-09-25T07:59:28.404Z,11.66
2022-09-25T08:01:54.925Z,11.78
2022-09-25T08:04:21.421Z,11.97
2022-09-25T08:06:47.789Z,12.10
2022-09-25T08:09:14.426Z,12.07
2022-09-25T08:11:40.759Z,12.02
2022-09-25T08:14:07.218Z,12.04
2022-09-25T08:16:33.840Z,12.06
2022-09-25T08:19:00.245Z,12.32
2022-09-25T08:21:26.665Z,12.48
2022-09-25T08:23:53.736Z,12.48
2022-09-25T08:26:21.659Z,12.62
2022-09-25T08:28:49.118Z,12.45
2022-09-25T08:31:15.781Z,12.38
2022-09-25T08:33:46.894Z,12.48
2022-09-25T08:36:13.825Z,12.67
2022-09-25T08:38:40.143Z,12.70
2022-09-25T08:41:21.595Z,12.53
2022-09-25T08:44:26.075Z,12.70
2022-09-25T08:46:57.953Z,12.74
2022-09-25T08:49:28.199Z,12.91
2022-09-25T08:52:01.610Z,13.02
2022-09-25T08:54:31.431Z,13.15
2022-09-25T08:57:00.946Z,13.34
2022-09-25T08:59:34.676Z,13.42
2022-09-25T09:02:13.635Z,13.55
2022-09-25T09:04:58.586Z,13.78
2022-09-25T09:07:36.596Z,13.96
2022-09-25T09:10:25.412Z,14.25
2022-09-25T09:12:59.520Z,14.46
2022-09-25T09:15:34.760Z,14.25
2022-09-25T09:18:09.269Z,13.84
2022-09-25T09:21:04.764Z,13.79
2022-09-25T09:23:41.482Z,14.02
2022-09-25T09:26:34.106Z,13.96
2022-09-25T09:29:18.598Z,14.19
2022-09-25T09:32:01.355Z,14.01
2022-09-25T09:35:05.806Z,13.93
2022-09-25T09:38:01.047Z,13.97
2022-09-25T09:40:58.699Z,14.03
2022-09-25T09:43:43.689Z,14.09
2022-09-25T09:46:30.578Z,14.51
2022-09-25T09:49:08.849Z,14.58
2022-09-25T09:51:42.923Z,15.10
2022-09-25T09:54:19.251Z,14.96
2022-09-25T09:56:49.671Z,14.90
2022-09-25T09:59:20.058Z,15.22
2022-09-25T10:01:57.342Z,15.59
2022-09-25T10:04:30.057Z,15.19
2022-09-25T10:07:03.273Z,15.27
2022-09-25T10:09:29.847Z,15.61
2022-09-25T10:12:13.510Z,15.57
2022-09-25T10:14:44.757Z,15.48
2022-09-25T10:17:11.907Z,15.13
2022-09-25T10:19:53.355Z,14.61
2022-09-25T10:22:23.840Z,14.60
2022-09-25T10:24:58.914Z,14.79
2022-09-25T10:27:28.266Z,14.62
2022-09-25T10:30:09.613Z,14.57
2022-09-25T10:32:57.243Z,14.42
2022-09-25T10:35:29.550Z,14.22
2022-09-25T10:38:00.446Z,14.15
2022-09-25T10:40:34.698Z,14.14
2022-09-25T10:43:07.137Z,14.20
2022-09-25T10:45:36.411Z,14.39
2022-09-25T10:48:24.144Z,14.21
2022-09-25T10:51:08.450Z,14.23
2022-09-25T10:53:35.408Z,14.17
2022-09-25T10:56:08.046Z,14.28
2022-09-25T10:58:43.151Z,14.26
2022-09-25T11:01:11.697Z,14.27
2022-09-25T11:03:47.858Z,14.19
2022-09-25T11:06:22.449Z,14.02
2022-09-25T11:09:05.298Z,14.06
2022-09-25T11:11:31.813Z,14.06
2022-09-25T11:14:01.825Z,14.03
2022-09-25T11:16:45.763Z,14.04
2022-09-25T11:19:19.531Z,14.03
2022-09-25T11:21:56.105Z,14.08
2022-09-25T11:24:44.349Z,14.08
2022-09-25T11:27:37.862Z,14.18
2022-09-25T11:30:06.505Z,14.30
2022-09-25T11:33:03.182Z,14.34
2022-09-25T11:35:47.565Z,14.28
2022-09-25T11:38:44.756Z,14.35
2022-09-25T11:41:27.899Z,14.30
2022-09-25T11:44:10.092Z,14.18
2022-09-25T11:46:51.360Z,14.08
2022-09-25T11:49:39.328Z,14.07
2022-09-25T11:52:20.255Z,14.06
2022-09-25T11:55:03.578Z,14.02
2022-09-25T11:57:48.774Z,14.03
2022-09-25T12:00:22.886Z,14.14
2022-09-25T12:03:30.778Z,14.09
2022-09-25T12:06:16.882Z,13.92
2022-09-25T12:09:01.868Z,13.84
2022-09-25T12:11:40.143Z,13.72
2022-09-25T12:14:31.326Z,13.59
2022-09-25T12:17:09.843Z,13.57
2022-09-25T12:19:55.875Z,13.55
2022-09-25T12:22:50.932Z,13.63
2022-09-25T12:25:50.602Z,13.78
2022-09-25T12:28:54.414Z,13.81
2022-09-25T12:31:58.136Z,14.10
2022-09-25T12:35:09.626Z,14.27
2022-09-25T12:37:42.292Z,14.53
2022-09-25T12:40:20.430Z,14.48
2022-09-25T12:42:57.090Z,14.95
2022-09-25T12:45:45.746Z,15.28
2022-09-25T12:48:44.530Z,15.42
2022-09-25T12:51:29.739Z,15.54
2022-09-25T12:54:00.418Z,15.38
2022-09-25T12:56:33.012Z,15.21
2022-09-25T12:59:18.276Z,15.27
2022-09-25T13:01:56.005Z,15.21
2022-09-25T13:04:59.386Z,15.02
2022-09-25T13:07:49.794Z,14.96
2022-09-25T13:10:33.786Z,14.66
2022-09-25T13:13:04.106Z,14.78
2022-09-25T13:15:34.603Z,14.60
2022-09-25T13:18:01.512Z,14.66
2022-09-25T13:20:27.857Z,14.70
2022-09-25T13:23:13.378Z,14.73
2022-09-25T13:26:02.267Z,14.84
2022-09-25T13:28:36.906Z,14.74
2022-09-25T13:31:21.165Z,14.81
2022-09-25T13:33:55.348Z,14.85
2022-09-25T13:36:21.675Z,14.99
2022-09-25T13:38:47.997Z,15.05
2022-09-25T13:41:15.022Z,14.95
2022-09-25T13:43:41.632Z,14.68
2022-09-25T13:46:17.205Z,14.63
2022-09-25T13:48:44.220Z,14.89
2022-09-25T13:51:22.871Z,15.07
2022-09-25T13:54:10.131Z,15.07
2022-09-25T13:56:47.253Z,15.04
2022-09-25T13:59:13.809Z,14.93
2022-09-25T14:01:48.113Z,14.94
2022-09-25T14:04:14.649Z,15.01
2022-09-25T14:06:43.197Z,14.72
2022-09-25T14:09:31.409Z,14.44
2022-09-25T14:12:13.804Z,14.52
2022-09-25T14:14:47.555Z,14.26
2022-09-25T14:17:16.237Z,14.35
2022-09-25T14:19:45.336Z,14.39
2022-09-25T14:22:21.895Z,14.37
2022-09-25T14:24:48.268Z,14.60
2022-09-25T14:27:22.089Z,14.70
2022-09-25T14:29:48.716Z,14.73
2022-09-25T14:32:54.154Z,14.93
2022-09-25T14:35:20.676Z,14.91
2022-09-25T14:37:53.055Z,14.96
2022-09-25T14:40:34.491Z,15.20
2022-09-25T14:43:22.625Z,15.42
2022-09-25T14:46:07.640Z,15.54
2022-09-25T14:49:12.749Z,15.54
2022-09-25T14:51:46.197Z,15.51
2022-09-25T14:54:18.596Z,15.63
2022-09-25T14:56:47.565Z,15.43
2022-09-25T14:59:18.874Z,15.39
2022-09-25T15:01:49.092Z,15.08
2022-09-25T15:04:27.208Z,14.95
2022-09-25T15:07:03.250Z,14.93
2022-09-25T15:09:41.042Z,14.86
2022-09-25T15:12:23.719Z,14.76
2022-09-25T15:15:13.328Z,14.72
2022-09-25T15:17:50.986Z,14.82
2022-09-25T15:20:20.828Z,14.86
2022-09-25T15:23:00.015Z,15.05
2022-09-25T15:25:31.482Z,15.07
2022-09-25T15:27:58.498Z,15.00
2022-09-25T15:30:28.382Z,15.23
2022-09-25T15:33:00.557Z,15.25
2022-09-25T15:35:30.294Z,15.29
2022-09-25T15:38:13.914Z,15.27
2022-09-25T15:40:40.550Z,15.05
2022-09-25T15:43:14.575Z,14.97
2022-09-25T15:45:50.039Z,14.97
2022-09-25T15:48:29.732Z,14.89
2022-09-25T15:50:58.901Z,14.68
2022-09-25T15:53:32.435Z,14.49
2022-09-25T15:56:06.507Z,14.39
2022-09-25T15:58:42.597Z,14.39
2022-09-25T16:01:13.920Z,14.32
2022-09-25T16:03:51.216Z,14.33
2022-09-25T16:06:18.441Z,14.29
2022-09-25T16:08:45.195Z,14.28
2022-09-25T16:11:17.348Z,14.24
2022-09-25T16:13:45.532Z,14.13
2022-09-25T16:16:21.890Z,14.09
2022-09-25T16:18:48.606Z,14.08
2022-09-25T16:21:38.372Z,14.05
2022-09-25T16:24:06.826Z,13.99
2022-09-25T16:26:39.591Z,13.99
2022-09-25T16:29:16.547Z,13.98
2022-09-25T16:31:44.845Z,13.92
2022-09-25T16:34:39.147Z,13.85
2022-09-25T16:37:08.136Z,13.80
2022-09-25T16:39:37.034Z,13.77
2022-09-25T16:42:26.723Z,13.77
2022-09-25T16:45:02.806Z,13.72
2022-09-25T16:47:29.919Z,13.67
2022-09-25T16:49:56.956Z,13.65
2022-09-25T16:52:28.793Z,13.64
2022-09-25T16:54:55.804Z,13.62
2022-09-25T16:57:26.806Z,13.60
2022-09-25T16:59:53.676Z,13.57
2022-09-25T17:02:27.065Z,13.55
2022-09-25T17:04:53.547Z,13.46
2022-09-25T17:07:19.991Z,13.37
2022-09-25T17:09:47.106Z,13.30
2022-09-25T17:12:20.062Z,13.20
2022-09-25T17:14:47.448Z,13.13
2022-09-25T17:17:17.425Z,13.03
2022-09-25T17:19:43.944Z,12.96
2022-09-25T17:22:10.364Z,12.90
2022-09-25T17:24:39.663Z,12.81
2022-09-25T17:27:14.044Z,12.73
2022-09-25T17:29:41.723Z,12.66
2022-09-25T17:32:16.964Z,12.55
2022-09-25T17:34:45.545Z,12.51
2022-09-25T17:37:12.073Z,12.45
2022-09-25T17:39:38.636Z,12.40
2022-09-25T17:42:05.191Z,12.36
2022-09-25T17:44:31.579Z,12.35
2022-09-25T17:46:57.962Z,12.32
2022-09-25T17:49:24.437Z,12.29
2022-09-25T17:51:51.448Z,12.30
2022-09-25T17:54:18.073Z,12.35
2022-09-25T17:56:44.537Z,12.37
2022-09-25T17:59:11.301Z,12.36
2022-09-25T18:01:39.783Z,12.33
2022-09-25T18:04:24.327Z,12.32
2022-09-25T18:06:51.268Z,12.27
2022-09-25T18:09:17.834Z,12.25
2022-09-25T18:11:44.509Z,12.25
2022-09-25T18:14:12.576Z,12.27
2022-09-25T18:16:41.683Z,12.25
2022-09-25T18:19:15.623Z,12.25
2022-09-25T18:21:42.083Z,12.36
2022-09-25T18:24:08.443Z,12.34
2022-09-25T18:26:34.801Z,12.31
2022-09-25T18:29:01.339Z,12.25
2022-09-25T18:31:27.867Z,12.22
2022-09-25T18:33:54.189Z,12.18
2022-09-25T18:36:21.710Z,12.10
2022-09-25T18:38:48.201Z,12.02
2022-09-25T18:41:14.703Z,11.99
2022-09-25T18:43:41.112Z,11.95
2022-09-25T18:46:07.535Z,11.96
2022-09-25T18:48:34.017Z,11.95
2022-09-25T18:51:00.624Z,12.01
2022-09-25T18:53:27.366Z,12.05
2022-09-25T18:55:55.275Z,12.08
2022-09-25T18:58:21.595Z,12.10
2022-09-25T19:00:47.918Z,12.10
2022-09-25T19:03:14.392Z,12.09
2022-09-25T19:05:40.884Z,12.10
2022-09-25T19:08:07.473Z,12.11
2022-09-25T19:10:33.813Z,12.12
2022-09-25T19:13:02.165Z,12.10
2022-09-25T19:15:28.586Z,12.10
2022-09-25T19:17:55.626Z,12.09
2022-09-25T19:20:21.977Z,12.10
2022-09-25T19:22:48.445Z,12.10
2022-09-25T19:25:18.933Z,12.11
2022-09-25T19:27:48.021Z,12.09
2022-09-25T19:30:14.339Z,12.04
2022-09-25T19:32:40.991Z,12.02
2022-09-25T19:35:07.740Z,12.04
2022-09-25T19:37:34.179Z,12.05
2022-09-25T19:40:00.528Z,12.04
2022-09-25T19:42:28.074Z,12.04
2022-09-25T19:44:54.541Z,12.00
2022-09-25T19:47:21.188Z,11.99
2022-09-25T19:49:49.902Z,11.98
2022-09-25T19:52:16.388Z,11.97
2022-09-25T19:54:42.955Z,11.95
2022-09-25T19:57:09.297Z,11.90
2022-09-25T19:59:35.588Z,11.90
2022-09-25T20:02:02.251Z,11.86
2022-09-25T20:04:28.637Z,11.88
2022-09-25T20:06:55.161Z,11.84
2022-09-25T20:09:21.484Z,11.82
2022-09-25T20:11:47.849Z,11.82
2022-09-25T20:14:14.297Z,11.83
2022-09-25T20:16:42.726Z,11.79
2022-09-25T20:19:09.990Z,11.79
2022-09-25T20:21:38.791Z,11.78
2022-09-25T20:24:07.189Z,11.78
2022-09-25T20:26:33.622Z,11.75
2022-09-25T20:29:02.976Z,11.71
2022-09-25T20:31:31.408Z,11.70
2022-09-25T20:33:57.972Z,11.69
2022-09-25T20:36:25.329Z,11.70
2022-09-25T20:38:53.356Z,11.62
2022-09-25T20:41:21.429Z,11.63
2022-09-25T20:43:52.993Z,11.64
2022-09-25T20:46:20.074Z,11.57
2022-09-25T20:48:48.737Z,11.55
2022-09-25T20:51:17.351Z,11.54
2022-09-25T20:53:44.072Z,11.52
2022-09-25T20:56:12.794Z,11.52
2022-09-25T20:58:40.703Z,11.49
2022-09-25T21:01:09.875Z,11.52
2022-09-25T21:03:38.502Z,11.48
2022-09-25T21:06:08.064Z,11.48
2022-09-25T21:08:34.760Z,11.49
2022-09-25T21:11:01.548Z,11.47
2022-09-25T21:13:33.663Z,11.46
2022-09-25T21:16:11.536Z,11.49
2022-09-25T21:18:39.109Z,11.50
2022-09-25T21:21:08.455Z,11.49
2022-09-25T21:23:36.497Z,11.49
2022-09-25T21:26:09.621Z,11.43
2022-09-25T21:28:37.264Z,11.37
2022-09-25T21:31:09.981Z,11.37
2022-09-25T21:33:37.948Z,11.33
2022-09-25T21:36:05.525Z,11.30
2022-09-25T21:38:32.143Z,11.32
2022-09-25T21:41:02.742Z,11.37
2022-09-25T21:43:31.076Z,11.38
2022-09-25T21:46:27.980Z,11.37
2022-09-25T21:48:56.533Z,11.39
2022-09-25T21:51:25.547Z,11.37
2022-09-25T21:53:55.347Z,11.38
2022-09-25T21:56:24.508Z,11.32
2022-09-25T21:58:53.005Z,11.32
2022-09-25T22:01:22.112Z,11.29
2022-09-25T22:03:50.913Z,11.30
2022-09-25T22:06:20.490Z,11.26
2022-09-25T22:08:49.797Z,11.25
2022-09-25T22:11:17.292Z,11.23
2022-09-25T22:13:45.137Z,11.22
2022-09-25T22:16:20.821Z,11.20
2022-09-25T22:18:54.038Z,11.18
2022-09-25T22:21:22.689Z,11.20
2022-09-25T22:23:49.871Z,11.17
2022-09-25T22:26:21.094Z,11.15
2022-09-25T22:28:48.231Z,11.15
2022-09-25T22:31:16.370Z,11.14
2022-09-25T22:33:43.111Z,11.14
2022-09-25T22:36:11.078Z,11.14
2022-09-25T22:38:38.547Z,11.08
2022-09-25T22:41:10.403Z,11.08
2022-09-25T22:43:37.671Z,11.07
2022-09-25T22:46:04.610Z,11.09
2022-09-25T22:48:33.057Z,11.09
2022-09-25T22:51:03.839Z,11.08
2022-09-25T22:53:31.033Z,11.09
2022-09-25T22:56:15.977Z,11.02
2022-09-25T22:58:43.581Z,11.02
2022-09-25T23:01:13.587Z,11.03
2022-09-25T23:03:40.027Z,11.01
2022-09-25T23:06:06.896Z,11.01
2022-09-25T23:08:33.439Z,11.01
2022-09-25T23:11:08.082Z,11.01
2022-09-25T23:13:35.011Z,10.97
2022-09-25T23:16:07.617Z,10.99
2022-09-25T23:18:37.119Z,10.99
2022-09-25T23:21:04.470Z,10.96
2022-09-25T23:23:31.409Z,10.99
2022-09-25T23:26:06.469Z,11.01
2022-09-25T23:28:34.715Z,10.97
2022-09-25T23:31:19.643Z,10.96
2022-09-25T23:33:47.316Z,10.96
2022-09-25T23:36:19.596Z,10.96
2022-09-25T23:38:47.511Z,10.91
2022-09-25T23:41:15.355Z,10.91
2022-09-25T23:43:42.030Z,10.88
2022-09-25T23:46:08.516Z,10.86
2022-09-25T23:48:35.023Z,10.89
2022-09-25T23:51:01.514Z,10.88
2022-09-25T23:53:31.146Z,10.84
2022-09-25T23:55:57.691Z,10.85
2022-09-25T23:58:23.997Z,10.82
